createdAt,value
2018-09-20T00:00:43.630Z,18.55
2018-09-20T00:01:43.644Z,18.53
2018-09-20T00:02:43.813Z,18.52
2018-09-20T00:03:43.891Z,18.54
2018-09-20T00:04:43.995Z,18.52
2018-09-20T00:05:44.106Z,18.50
2018-09-20T00:06:44.225Z,18.50
2018-09-20T00:07:44.521Z,18.49
2018-09-20T00:08:44.716Z,18.49
2018-09-20T00:09:45.093Z,18.48
2018-09-20T00:10:45.157Z,18.46
2018-09-20T00:11:45.269Z,18.46
2018-09-20T00:12:45.390Z,18.46
2018-09-20T00:13:45.487Z,18.46
2018-09-20T00:14:45.833Z,18.46
2018-09-20T00:15:46.168Z,18.44
2018-09-20T00:16:46.495Z,18.44
2018-09-20T00:17:46.618Z,18.43
2018-09-20T00:18:46.658Z,18.41
2018-09-20T00:19:46.872Z,18.33
2018-09-20T00:20:46.865Z,18.31
2018-09-20T00:21:47.054Z,18.30
2018-09-20T00:22:47.249Z,18.30
2018-09-20T00:23:47.292Z,18.28
2018-09-20T00:24:47.572Z,18.28
2018-09-20T00:25:47.617Z,18.28
2018-09-20T00:26:47.727Z,18.28
2018-09-20T00:27:48.502Z,18.27
2018-09-20T00:28:48.129Z,18.27
2018-09-20T00:29:48.866Z,18.27
2018-09-20T00:30:49.472Z,18.27
2018-09-20T00:31:49.053Z,18.28
2018-09-20T00:32:49.482Z,18.31
2018-09-20T00:33:50.006Z,18.32
2018-09-20T00:34:50.841Z,18.32
2018-09-20T00:35:51.039Z,18.32
2018-09-20T00:36:51.134Z,18.32
2018-09-20T00:37:51.464Z,18.33
2018-09-20T00:38:51.468Z,18.33
2018-09-20T00:39:51.282Z,18.33
2018-09-20T00:40:51.685Z,18.32
2018-09-20T00:41:52.088Z,18.26
2018-09-20T00:42:52.199Z,18.24
2018-09-20T00:43:52.297Z,18.24
2018-09-20T00:44:52.391Z,18.22
2018-09-20T00:45:52.388Z,18.21
2018-09-20T00:46:52.690Z,18.20
2018-09-20T00:47:53.041Z,18.20
2018-09-20T00:48:53.367Z,18.16
2018-09-20T00:49:53.659Z,18.15
2018-09-20T00:50:54.247Z,18.15
2018-09-20T00:51:54.228Z,18.14
2018-09-20T00:52:54.438Z,18.14
2018-09-20T00:53:54.590Z,18.13
2018-09-20T00:54:55.042Z,18.12
2018-09-20T00:55:55.148Z,18.08
2018-09-20T00:57:55.687Z,18.08
2018-09-20T00:58:55.694Z,18.05
2018-09-20T00:59:55.828Z,18.04
2018-09-20T01:00:55.972Z,18.04
2018-09-20T01:01:56.234Z,18.03
2018-09-20T01:02:56.361Z,18.01
2018-09-20T01:03:56.468Z,17.90
2018-09-20T01:04:56.581Z,17.85
2018-09-20T01:05:56.862Z,17.84
2018-09-20T01:06:56.961Z,17.84
2018-09-20T01:07:57.008Z,17.83
2018-09-20T01:08:57.251Z,17.81
2018-09-20T01:09:57.392Z,17.80
2018-09-20T01:10:57.440Z,17.79
2018-09-20T01:11:57.551Z,17.78
2018-09-20T01:12:57.704Z,17.77
2018-09-20T01:13:57.792Z,17.76
2018-09-20T01:14:57.793Z,17.75
2018-09-20T01:15:57.936Z,17.74
2018-09-20T01:16:58.040Z,17.69
2018-09-20T01:17:58.172Z,17.68
2018-09-20T01:18:58.205Z,17.68
2018-09-20T01:19:58.258Z,17.68
2018-09-20T01:20:58.334Z,17.67
2018-09-20T01:21:58.427Z,17.67
2018-09-20T01:22:58.551Z,17.66
2018-09-20T01:23:58.684Z,17.60
2018-09-20T01:24:59.282Z,17.60
2018-09-20T01:25:59.574Z,17.60
2018-09-20T01:26:59.694Z,17.60
2018-09-20T01:27:59.952Z,17.60
2018-09-20T01:29:00.082Z,17.59
2018-09-20T01:30:00.499Z,17.57
2018-09-20T01:31:00.333Z,17.55
2018-09-20T01:32:00.439Z,17.55
2018-09-20T01:33:00.569Z,17.55
2018-09-20T01:34:00.699Z,17.54
2018-09-20T01:35:00.766Z,17.54
2018-09-20T01:36:00.982Z,17.53
2018-09-20T01:37:01.277Z,17.53
2018-09-20T01:38:01.904Z,17.51
2018-09-20T01:39:01.416Z,17.49
2018-09-20T01:40:02.183Z,17.47
2018-09-20T01:42:02.556Z,17.46
2018-09-20T01:43:03.162Z,17.43
2018-09-20T01:44:03.058Z,17.40
2018-09-20T01:45:03.985Z,17.37
2018-09-20T01:46:04.198Z,17.33
2018-09-20T01:47:04.644Z,17.30
2018-09-20T01:48:05.042Z,17.26
2018-09-20T01:49:05.146Z,17.23
2018-09-20T01:50:05.729Z,17.19
2018-09-20T01:51:06.173Z,17.16
2018-09-20T01:52:06.075Z,17.13
2018-09-20T01:53:06.812Z,17.10
2018-09-20T01:54:06.626Z,17.09
2018-09-20T01:55:07.116Z,17.07
2018-09-20T01:56:07.387Z,17.06
2018-09-20T01:57:07.427Z,17.05
2018-09-20T01:58:07.737Z,17.03
2018-09-20T01:59:08.121Z,17.01
2018-09-20T02:00:08.471Z,17.00
2018-09-20T02:01:08.499Z,17.00
2018-09-20T02:02:08.690Z,17.00
2018-09-20T02:03:09.080Z,17.00
2018-09-20T02:04:10.008Z,17.00
2018-09-20T02:05:09.677Z,16.99
2018-09-20T02:06:09.725Z,16.97
2018-09-20T02:07:09.768Z,16.92
2018-09-20T02:08:09.773Z,16.93
2018-09-20T02:09:09.800Z,16.92
2018-09-20T02:10:10.064Z,16.91
2018-09-20T02:11:10.323Z,16.90
2018-09-20T02:12:10.424Z,16.89
2018-09-20T02:13:10.560Z,16.88
2018-09-20T02:14:10.691Z,16.87
2018-09-20T02:15:11.058Z,16.86
2018-09-20T02:16:11.107Z,16.86
2018-09-20T02:17:11.565Z,16.86
2018-09-20T02:18:11.714Z,16.85
2018-09-20T02:19:11.885Z,16.85
2018-09-20T02:20:12.111Z,16.84
2018-09-20T02:21:12.228Z,16.84
2018-09-20T02:22:12.649Z,16.83
2018-09-20T02:23:12.764Z,16.82
2018-09-20T02:24:13.071Z,16.81
2018-09-20T02:25:13.371Z,16.81
2018-09-20T02:26:13.726Z,16.80
2018-09-20T02:27:14.090Z,16.79
2018-09-20T02:28:14.391Z,16.79
2018-09-20T02:29:14.429Z,16.78
2018-09-20T02:30:15.035Z,16.78
2018-09-20T02:31:14.540Z,16.77
2018-09-20T02:32:15.200Z,16.77
2018-09-20T02:33:15.429Z,16.76
2018-09-20T02:34:15.700Z,16.76
2018-09-20T02:35:16.107Z,16.76
2018-09-20T02:36:16.258Z,16.76
2018-09-20T02:37:16.684Z,16.77
2018-09-20T02:38:17.377Z,16.77
2018-09-20T02:39:17.355Z,16.77
2018-09-20T02:40:17.487Z,16.77
2018-09-20T02:41:17.682Z,16.77
2018-09-20T02:42:18.185Z,16.77
2018-09-20T02:43:17.750Z,16.78
2018-09-20T02:44:17.815Z,16.78
2018-09-20T02:45:18.560Z,16.78
2018-09-20T02:46:18.515Z,16.78
2018-09-20T02:47:19.656Z,16.78
2018-09-20T02:48:19.460Z,16.77
2018-09-20T02:49:20.056Z,16.76
2018-09-20T02:50:20.285Z,16.75
2018-09-20T02:51:20.399Z,16.74
2018-09-20T02:52:20.600Z,16.73
2018-09-20T02:53:20.612Z,16.72
2018-09-20T02:54:20.824Z,16.72
2018-09-20T02:55:20.931Z,16.71
2018-09-20T02:56:21.145Z,16.70
2018-09-20T02:57:21.306Z,16.69
2018-09-20T02:58:21.360Z,16.67
2018-09-20T02:59:21.365Z,16.67
2018-09-20T03:00:21.367Z,16.66
2018-09-20T03:01:21.389Z,16.65
2018-09-20T03:02:21.178Z,16.64
2018-09-20T03:03:21.593Z,16.64
2018-09-20T03:04:21.797Z,16.63
2018-09-20T03:05:22.005Z,16.63
2018-09-20T03:06:22.200Z,16.63
2018-09-20T03:07:22.200Z,16.63
2018-09-20T03:08:22.414Z,16.63
2018-09-20T03:09:22.383Z,16.63
2018-09-20T03:10:22.767Z,16.63
2018-09-20T03:11:23.075Z,16.63
2018-09-20T03:12:23.486Z,16.62
2018-09-20T03:13:23.935Z,16.61
2018-09-20T03:14:24.290Z,16.61
2018-09-20T03:15:24.476Z,16.60
2018-09-20T03:16:24.718Z,16.58
2018-09-20T03:17:24.858Z,16.56
2018-09-20T03:18:24.984Z,16.48
2018-09-20T03:19:25.001Z,16.47
2018-09-20T03:20:25.003Z,16.47
2018-09-20T03:21:25.128Z,16.47
2018-09-20T03:22:25.492Z,16.47
2018-09-20T03:23:25.552Z,16.47
2018-09-20T03:24:25.955Z,16.46
2018-09-20T03:25:26.231Z,16.46
2018-09-20T03:26:26.527Z,16.46
2018-09-20T03:27:26.946Z,16.45
2018-09-20T03:28:27.372Z,16.45
2018-09-20T03:29:27.688Z,16.45
2018-09-20T03:30:27.829Z,16.44
2018-09-20T03:31:27.854Z,16.44
2018-09-20T03:32:28.004Z,16.44
2018-09-20T03:33:28.336Z,16.43
2018-09-20T03:34:28.495Z,16.43
2018-09-20T03:35:28.618Z,16.42
2018-09-20T03:36:28.695Z,16.42
2018-09-20T03:37:28.726Z,16.41
2018-09-20T03:38:29.296Z,16.40
2018-09-20T03:39:29.324Z,16.39
2018-09-20T03:40:29.438Z,16.38
2018-09-20T03:41:29.459Z,16.37
2018-09-20T03:42:29.726Z,16.36
2018-09-20T03:43:29.984Z,16.35
2018-09-20T03:44:30.071Z,16.34
2018-09-20T03:45:30.098Z,16.33
2018-09-20T03:46:30.198Z,16.31
2018-09-20T03:47:30.474Z,16.29
2018-09-20T03:48:30.519Z,16.26
2018-09-20T03:49:30.622Z,16.23
2018-09-20T03:50:30.799Z,16.20
2018-09-20T03:51:31.005Z,16.17
2018-09-20T03:52:31.151Z,16.13
2018-09-20T03:53:31.572Z,16.11
2018-09-20T03:54:31.673Z,16.09
2018-09-20T03:55:31.789Z,16.07
2018-09-20T03:56:32.090Z,16.06
2018-09-20T03:57:32.109Z,16.06
2018-09-20T03:58:32.571Z,16.05
2018-09-20T03:59:32.789Z,16.05
2018-09-20T04:00:33.025Z,16.05
2018-09-20T04:01:33.440Z,16.04
2018-09-20T04:02:34.183Z,16.03
2018-09-20T04:03:34.786Z,16.03
2018-09-20T04:04:35.003Z,16.02
2018-09-20T04:05:34.905Z,16.02
2018-09-20T04:06:35.425Z,16.02
2018-09-20T04:07:35.748Z,16.03
2018-09-20T04:09:35.853Z,16.03
2018-09-20T04:10:36.061Z,16.04
2018-09-20T04:11:35.964Z,16.04
2018-09-20T04:12:36.158Z,16.05
2018-09-20T04:13:36.183Z,16.05
2018-09-20T04:14:36.608Z,16.06
2018-09-20T04:15:36.923Z,16.06
2018-09-20T04:16:37.100Z,16.06
2018-09-20T04:17:37.107Z,16.07
2018-09-20T04:18:37.116Z,16.07
2018-09-20T04:19:36.595Z,16.07
2018-09-20T04:20:37.809Z,16.08
2018-09-20T04:21:37.622Z,16.09
2018-09-20T04:22:37.918Z,16.09
2018-09-20T04:23:38.389Z,16.09
2018-09-20T04:24:38.816Z,16.10
2018-09-20T04:25:39.257Z,16.11
2018-09-20T04:27:39.560Z,16.12
2018-09-20T04:28:39.606Z,16.14
2018-09-20T04:29:39.771Z,16.14
2018-09-20T04:30:39.794Z,16.15
2018-09-20T04:31:40.320Z,16.15
2018-09-20T04:32:40.498Z,16.16
2018-09-20T04:33:40.533Z,16.15
2018-09-20T04:34:41.044Z,16.16
2018-09-20T04:35:40.656Z,16.16
2018-09-20T04:36:40.737Z,16.17
2018-09-20T04:37:40.937Z,16.17
2018-09-20T04:38:41.223Z,16.17
2018-09-20T04:39:41.414Z,16.18
2018-09-20T04:40:41.607Z,16.18
2018-09-20T04:41:41.981Z,16.19
2018-09-20T04:42:42.329Z,16.19
2018-09-20T04:43:42.669Z,16.19
2018-09-20T04:44:42.804Z,16.19
2018-09-20T04:45:42.875Z,16.19
2018-09-20T04:46:43.012Z,16.19
2018-09-20T04:47:43.134Z,16.19
2018-09-20T04:48:43.517Z,16.19
2018-09-20T04:49:43.613Z,16.18
2018-09-20T04:50:43.875Z,16.18
2018-09-20T04:51:44.021Z,16.18
2018-09-20T04:52:44.332Z,16.18
2018-09-20T04:53:44.418Z,16.18
2018-09-20T04:54:44.530Z,16.18
2018-09-20T04:55:44.800Z,16.17
2018-09-20T04:56:44.885Z,16.17
2018-09-20T04:57:44.999Z,16.16
2018-09-20T04:58:45.209Z,16.16
2018-09-20T04:59:45.516Z,16.15
2018-09-20T05:00:45.726Z,16.14
2018-09-20T05:01:45.729Z,16.14
2018-09-20T05:02:45.936Z,16.14
2018-09-20T05:03:46.173Z,16.14
2018-09-20T05:04:46.302Z,16.13
2018-09-20T05:05:46.372Z,16.13
2018-09-20T05:06:46.531Z,16.13
2018-09-20T05:07:46.824Z,16.13
2018-09-20T05:08:46.956Z,16.12
2018-09-20T05:09:47.145Z,16.12
2018-09-20T05:10:47.431Z,16.12
2018-09-20T05:11:47.644Z,16.12
2018-09-20T05:12:48.038Z,16.12
2018-09-20T05:13:48.457Z,16.12
2018-09-20T05:14:49.187Z,16.12
2018-09-20T05:15:49.802Z,16.12
2018-09-20T05:16:49.743Z,16.13
2018-09-20T05:17:50.223Z,16.13
2018-09-20T05:18:50.623Z,16.14
2018-09-20T05:19:51.376Z,16.15
2018-09-20T05:20:51.686Z,16.15
2018-09-20T05:21:51.578Z,16.16
2018-09-20T05:22:51.942Z,16.17
2018-09-20T05:23:52.278Z,16.21
2018-09-20T05:24:52.418Z,16.21
2018-09-20T05:25:52.516Z,16.22
2018-09-20T05:26:52.615Z,16.24
2018-09-20T05:27:52.755Z,16.25
2018-09-20T05:28:52.655Z,16.26
2018-09-20T05:29:53.273Z,16.27
2018-09-20T05:30:53.077Z,16.28
2018-09-20T05:31:53.473Z,16.30
2018-09-20T05:32:53.842Z,16.32
2018-09-20T05:33:54.410Z,16.33
2018-09-20T05:34:54.527Z,16.34
2018-09-20T05:35:54.538Z,16.36
2018-09-20T05:36:54.714Z,16.37
2018-09-20T05:37:54.710Z,16.39
2018-09-20T05:38:54.716Z,16.40
2018-09-20T05:39:54.853Z,16.42
2018-09-20T05:40:55.095Z,16.43
2018-09-20T05:41:55.336Z,16.45
2018-09-20T05:42:55.357Z,16.46
2018-09-20T05:43:55.850Z,16.47
2018-09-20T05:44:56.041Z,16.48
2018-09-20T05:45:56.164Z,16.49
2018-09-20T05:46:56.521Z,16.52
2018-09-20T05:47:56.975Z,16.52
2018-09-20T05:48:57.005Z,16.53
2018-09-20T05:49:57.122Z,16.53
2018-09-20T05:50:57.390Z,16.53
2018-09-20T05:51:57.394Z,16.54
2018-09-20T05:52:57.402Z,16.54
2018-09-20T05:53:57.546Z,16.55
2018-09-20T05:54:57.700Z,16.56
2018-09-20T05:55:57.844Z,16.58
2018-09-20T05:56:57.886Z,16.63
2018-09-20T05:57:58.103Z,16.64
2018-09-20T05:58:58.457Z,16.64
2018-09-20T05:59:58.658Z,16.65
2018-09-20T06:00:58.664Z,16.67
2018-09-20T06:01:58.726Z,16.69
2018-09-20T06:02:58.843Z,16.71
2018-09-20T06:03:58.969Z,16.72
2018-09-20T06:04:59.218Z,16.74
2018-09-20T06:05:59.612Z,16.75
2018-09-20T06:06:59.643Z,16.78
2018-09-20T06:07:59.887Z,16.80
2018-09-20T06:09:00.142Z,16.83
2018-09-20T06:10:00.623Z,16.86
2018-09-20T06:11:00.399Z,16.89
2018-09-20T06:12:00.471Z,16.90
2018-09-20T06:13:00.553Z,16.93
2018-09-20T06:14:00.641Z,16.95
2018-09-20T06:15:00.806Z,16.97
2018-09-20T06:16:00.887Z,16.98
2018-09-20T06:17:01.323Z,17.00
2018-09-20T06:18:01.764Z,17.01
2018-09-20T06:19:02.271Z,17.03
2018-09-20T06:20:02.007Z,17.05
2018-09-20T06:21:02.616Z,17.06
2018-09-20T06:22:02.710Z,17.07
2018-09-20T06:23:03.348Z,17.07
2018-09-20T06:24:03.511Z,17.08
2018-09-20T06:25:03.260Z,17.08
2018-09-20T06:26:04.295Z,17.07
2018-09-20T06:27:04.069Z,17.08
2018-09-20T13:13:20.980Z,37.86
2018-09-20T13:14:21.924Z,37.84
2018-09-20T13:15:50.578Z,37.72
2018-09-20T13:16:51.186Z,37.63
2018-09-20T13:17:51.544Z,37.55
2018-09-20T13:19:16.681Z,37.30
2018-09-20T13:20:16.877Z,37.32
2018-09-20T13:21:17.263Z,37.39
2018-09-20T13:22:17.476Z,37.48
2018-09-20T13:23:17.835Z,37.54
2018-09-20T13:24:38.587Z,37.27
2018-09-20T13:25:39.094Z,37.19
2018-09-20T13:26:39.054Z,37.01
2018-09-20T13:27:39.221Z,36.99
2018-09-20T13:29:36.504Z,37.04
2018-09-20T13:31:35.350Z,36.66
2018-09-20T13:32:36.226Z,36.69
2018-09-20T13:33:36.435Z,36.79
2018-09-20T13:34:36.865Z,36.97
2018-09-20T13:35:36.960Z,37.16
2018-09-20T13:36:37.071Z,37.19
2018-09-20T13:37:37.039Z,37.33
2018-09-20T13:38:37.247Z,37.33
2018-09-20T13:39:37.473Z,37.36
2018-09-20T13:41:37.704Z,37.25
2018-09-20T13:42:37.889Z,37.29
2018-09-20T13:43:38.158Z,37.51
2018-09-20T13:44:38.461Z,37.66
2018-09-20T13:45:38.770Z,37.73
2018-09-20T13:46:39.090Z,37.79
2018-09-20T13:47:39.280Z,37.92
2018-09-20T13:49:39.947Z,37.74
2018-09-20T13:50:39.571Z,37.02
2018-09-20T13:52:39.936Z,36.83
2018-09-20T13:53:39.852Z,37.05
2018-09-20T13:54:40.307Z,37.03
2018-09-20T13:55:40.685Z,37.22
2018-09-20T13:56:40.712Z,37.28
2018-09-20T13:57:40.705Z,37.44
2018-09-20T13:59:41.456Z,37.54
2018-09-20T14:00:41.594Z,37.37
2018-09-20T14:01:41.403Z,37.58
2018-09-20T14:02:41.745Z,37.68
2018-09-20T14:03:42.440Z,37.73
2018-09-20T14:04:42.573Z,37.28
2018-09-20T14:05:42.531Z,37.31
2018-09-20T14:07:43.166Z,36.96
2018-09-20T14:08:43.302Z,36.40
2018-09-20T14:09:43.681Z,36.18
2018-09-20T14:10:43.803Z,36.23
2018-09-20T14:11:43.638Z,36.22
2018-09-20T14:12:44.233Z,36.14
2018-09-20T14:13:44.248Z,36.08
2018-09-20T14:14:44.295Z,36.03
2018-09-20T14:16:59.968Z,36.11
2018-09-20T14:18:00.304Z,36.01
2018-09-20T14:19:00.615Z,35.79
2018-09-20T14:20:02.360Z,35.66
2018-09-20T14:21:02.652Z,35.93
2018-09-20T14:22:01.776Z,36.18
2018-09-20T14:23:01.931Z,36.28
2018-09-20T14:24:02.421Z,36.54
2018-09-20T14:25:02.640Z,36.62
2018-09-20T14:26:02.828Z,36.79
2018-09-20T14:27:03.376Z,36.50
2018-09-20T14:28:04.230Z,36.81
2018-09-20T14:29:04.442Z,36.58
2018-09-20T14:30:04.867Z,36.55
2018-09-20T14:31:04.696Z,36.73
2018-09-20T14:32:05.388Z,36.75
2018-09-20T14:33:05.706Z,36.93
2018-09-20T14:34:06.015Z,37.12
2018-09-20T14:35:06.497Z,37.07
2018-09-20T14:36:06.429Z,37.17
2018-09-20T14:37:06.651Z,36.90
2018-09-20T14:38:07.169Z,36.92
2018-09-20T14:39:06.955Z,36.93
2018-09-20T14:40:06.892Z,36.89
2018-09-20T14:41:07.380Z,37.01
2018-09-20T14:42:07.451Z,37.08
2018-09-20T14:43:07.564Z,37.10
2018-09-20T14:44:08.006Z,37.02
2018-09-20T14:45:08.244Z,37.19
2018-09-20T14:46:08.440Z,37.33
2018-09-20T14:47:09.068Z,37.14
2018-09-20T14:48:08.592Z,36.93
2018-09-20T14:49:09.047Z,36.99
2018-09-20T14:50:09.194Z,36.91
2018-09-20T14:51:09.361Z,36.91
2018-09-20T14:52:09.535Z,36.96
2018-09-20T14:53:09.635Z,36.91
2018-09-20T14:54:09.581Z,36.55
2018-09-20T14:55:10.289Z,36.57
2018-09-20T14:56:10.357Z,36.38
2018-09-20T14:57:10.937Z,36.48
2018-09-20T14:58:10.300Z,36.55
2018-09-20T14:59:11.029Z,36.59
2018-09-20T15:00:11.402Z,36.55
2018-09-20T15:01:11.258Z,36.49
2018-09-20T15:02:11.909Z,36.57
2018-09-20T15:03:12.223Z,36.53
2018-09-20T15:04:12.241Z,36.59
2018-09-20T15:05:12.375Z,36.66
2018-09-20T15:06:12.348Z,36.58
2018-09-20T15:07:12.666Z,36.51
2018-09-20T15:08:13.369Z,36.37
2018-09-20T15:09:13.236Z,36.34
2018-09-20T15:10:13.834Z,36.16
2018-09-20T15:11:13.931Z,36.04
2018-09-20T15:12:14.015Z,35.95
2018-09-20T15:13:14.213Z,35.99
2018-09-20T15:14:14.253Z,35.98
2018-09-20T15:15:14.800Z,35.62
2018-09-20T15:16:14.717Z,35.51
2018-09-20T15:17:14.606Z,35.60
2018-09-20T15:18:15.225Z,35.35
2018-09-20T15:19:15.306Z,35.45
2018-09-20T15:20:15.287Z,35.51
2018-09-20T15:21:15.680Z,35.53
2018-09-20T15:22:16.358Z,35.34
2018-09-20T15:23:16.377Z,35.30
2018-09-20T15:24:16.363Z,35.17
2018-09-20T15:25:16.929Z,35.35
2018-09-20T15:26:16.878Z,35.57
2018-09-20T15:27:17.583Z,35.52
2018-09-20T15:28:17.627Z,35.21
2018-09-20T15:29:17.943Z,35.27
2018-09-20T15:30:18.373Z,35.24
2018-09-20T15:31:18.879Z,35.44
2018-09-20T15:32:19.600Z,35.49
2018-09-20T15:33:20.021Z,35.58
2018-09-20T15:34:20.228Z,35.57
2018-09-20T15:35:20.662Z,35.64
2018-09-20T15:36:21.068Z,35.65
2018-09-20T15:37:21.173Z,35.73
2018-09-20T15:38:21.438Z,35.79
2018-09-20T15:39:21.799Z,35.80
2018-09-20T15:40:22.009Z,35.79
2018-09-20T15:41:22.070Z,35.49
2018-09-20T15:42:22.208Z,35.37
2018-09-20T15:43:22.295Z,35.36
2018-09-20T15:44:22.429Z,35.32
2018-09-20T15:45:22.669Z,35.39
2018-09-20T15:46:22.727Z,35.55
2018-09-20T15:48:22.566Z,35.62
2018-09-20T15:49:22.696Z,35.59
2018-09-20T15:50:22.846Z,35.59
2018-09-20T15:51:22.953Z,35.43
2018-09-20T15:52:23.392Z,35.02
2018-09-20T15:53:23.621Z,34.91
2018-09-20T15:54:23.622Z,35.09
2018-09-20T15:55:23.758Z,35.02
2018-09-20T15:57:24.026Z,34.79
2018-09-20T15:58:24.125Z,34.32
2018-09-20T15:59:24.235Z,34.49
2018-09-20T16:00:24.356Z,34.43
2018-09-20T16:01:24.599Z,34.26
2018-09-20T16:02:24.536Z,34.08
2018-09-20T16:03:25.072Z,33.94
2018-09-20T16:04:25.200Z,34.02
2018-09-20T16:05:25.109Z,34.01
2018-09-20T16:06:25.228Z,33.96
2018-09-20T16:07:25.174Z,33.87
2018-09-20T16:08:25.623Z,33.78
2018-09-20T16:09:26.334Z,33.66
2018-09-20T16:10:26.482Z,33.58
2018-09-20T16:11:26.653Z,33.55
2018-09-20T16:12:26.583Z,33.54
2018-09-20T16:13:26.896Z,33.26
2018-09-20T16:14:27.462Z,33.10
2018-09-20T16:15:27.638Z,32.77
2018-09-20T16:17:28.089Z,32.71
2018-09-20T16:18:27.925Z,32.40
2018-09-20T16:19:28.696Z,32.30
2018-09-20T16:20:28.923Z,32.18
2018-09-20T16:21:28.746Z,32.07
2018-09-20T16:22:29.011Z,32.07
2018-09-20T16:23:29.458Z,32.18
2018-09-20T16:24:29.460Z,32.29
2018-09-20T16:25:29.261Z,32.31
2018-09-20T16:26:30.100Z,32.32
2018-09-20T16:27:30.201Z,32.32
2018-09-20T16:28:30.393Z,32.29
2018-09-20T16:29:30.623Z,32.24
2018-09-20T16:30:30.567Z,32.22
2018-09-20T16:31:30.893Z,32.19
2018-09-20T16:32:31.637Z,32.19
2018-09-20T16:33:31.334Z,32.10
2018-09-20T16:34:31.261Z,31.87
2018-09-20T16:35:31.751Z,31.64
2018-09-20T16:36:32.502Z,31.38
2018-09-20T16:37:32.516Z,31.06
2018-09-20T16:38:32.848Z,30.90
2018-09-20T16:39:33.354Z,30.74
2018-09-20T16:40:33.778Z,30.59
2018-09-20T16:41:33.979Z,30.46
2018-09-20T16:42:34.296Z,30.29
2018-09-20T16:43:34.711Z,30.15
2018-09-20T16:44:34.724Z,29.99
2018-09-20T16:45:35.747Z,29.84
2018-09-20T16:46:35.764Z,29.74
2018-09-20T16:47:36.273Z,29.63
2018-09-20T16:48:36.584Z,29.50
2018-09-20T16:49:36.259Z,29.39
2018-09-20T16:50:37.128Z,29.27
2018-09-20T16:51:37.107Z,29.17
2018-09-20T16:52:37.621Z,29.02
2018-09-20T16:53:37.735Z,28.93
2018-09-20T16:54:37.841Z,28.77
2018-09-20T16:55:38.031Z,28.74
2018-09-20T16:56:38.378Z,28.66
2018-09-20T16:57:38.944Z,28.60
2018-09-20T16:58:38.613Z,28.52
2018-09-20T16:59:39.077Z,28.44
2018-09-20T17:00:39.486Z,28.37
2018-09-20T17:01:39.563Z,28.30
2018-09-20T17:02:39.561Z,28.24
2018-09-20T17:03:40.445Z,28.16
2018-09-20T17:04:40.729Z,28.08
2018-09-20T17:05:40.660Z,28.00
2018-09-20T17:06:41.103Z,27.93
2018-09-20T17:07:41.041Z,27.83
2018-09-20T17:08:41.694Z,27.73
2018-09-20T17:09:41.972Z,27.66
2018-09-20T17:10:41.950Z,27.58
2018-09-20T17:11:42.507Z,27.50
2018-09-20T17:12:42.170Z,27.43
2018-09-20T17:13:42.370Z,27.34
2018-09-20T17:14:42.403Z,27.28
2018-09-20T17:15:42.973Z,27.22
2018-09-20T17:16:43.133Z,27.16
2018-09-20T17:17:42.949Z,27.10
2018-09-20T17:18:43.526Z,27.06
2018-09-20T17:19:43.833Z,27.01
2018-09-20T17:20:44.057Z,26.95
2018-09-20T17:21:44.003Z,26.89
2018-09-20T17:22:44.848Z,26.82
2018-09-20T17:23:45.253Z,26.77
2018-09-20T17:24:44.974Z,26.68
2018-09-20T17:25:45.711Z,26.64
2018-09-20T17:26:45.694Z,26.59
2018-09-20T17:27:46.176Z,26.54
2018-09-20T17:28:46.369Z,26.47
2018-09-20T17:29:46.787Z,26.44
2018-09-20T17:30:46.712Z,26.37
2018-09-20T17:31:47.528Z,26.30
2018-09-20T17:32:47.203Z,26.25
2018-09-20T17:33:47.328Z,26.19
2018-09-20T17:34:47.574Z,26.12
2018-09-20T17:35:47.588Z,26.07
2018-09-20T17:36:47.808Z,26.01
2018-09-20T17:37:48.272Z,25.97
2018-09-20T17:38:47.900Z,25.95
2018-09-20T17:39:48.593Z,25.84
2018-09-20T17:40:48.776Z,25.78
2018-09-20T17:41:48.477Z,25.73
2018-09-20T17:42:49.223Z,25.68
2018-09-20T17:43:50.051Z,25.63
2018-09-20T17:44:49.755Z,25.55
2018-09-20T17:45:50.168Z,25.50
2018-09-20T17:46:50.459Z,25.44
2018-09-20T17:47:51.100Z,25.37
2018-09-20T17:48:51.405Z,25.32
2018-09-20T17:49:51.453Z,25.28
2018-09-20T17:50:51.639Z,25.23
2018-09-20T17:51:52.177Z,25.19
2018-09-20T17:52:52.263Z,25.16
2018-09-20T17:53:52.308Z,25.11
2018-09-20T17:54:52.474Z,25.07
2018-09-20T17:55:52.706Z,25.04
2018-09-20T17:56:52.636Z,25.00
2018-09-20T17:57:52.836Z,24.96
2018-09-20T17:58:52.934Z,24.91
2018-09-20T17:59:53.025Z,24.85
2018-09-20T18:00:53.548Z,24.81
2018-09-20T18:01:53.254Z,24.76
2018-09-20T18:02:53.496Z,24.72
2018-09-20T18:03:53.944Z,24.70
2018-09-20T18:04:54.110Z,24.68
2018-09-20T18:05:54.208Z,24.65
2018-09-20T18:06:54.445Z,24.63
2018-09-20T18:07:54.453Z,24.61
2018-09-20T18:08:55.240Z,24.61
2018-09-20T18:09:55.504Z,24.58
2018-09-20T18:10:56.172Z,24.56
2018-09-20T18:11:55.700Z,24.55
2018-09-20T18:12:56.105Z,24.54
2018-09-20T18:13:56.464Z,24.52
2018-09-20T18:14:56.913Z,24.50
2018-09-20T18:15:57.492Z,24.48
2018-09-20T18:16:57.563Z,24.36
2018-09-20T18:17:57.735Z,24.32
2018-09-20T18:18:57.644Z,24.31
2018-09-20T18:19:58.218Z,24.23
2018-09-20T18:20:58.508Z,24.16
2018-09-20T18:21:58.442Z,24.10
2018-09-20T18:22:58.531Z,24.03
2018-09-20T18:23:58.856Z,24.01
2018-09-20T18:24:58.923Z,23.94
2018-09-20T18:25:59.554Z,23.92
2018-09-20T18:26:59.557Z,23.87
2018-09-20T18:27:59.724Z,23.85
2018-09-20T18:28:59.890Z,23.83
2018-09-20T18:29:59.963Z,23.83
2018-09-20T18:30:59.862Z,23.81
2018-09-20T18:32:00.515Z,23.78
2018-09-20T18:33:00.466Z,23.77
2018-09-20T18:34:03.840Z,23.74
2018-09-20T18:35:01.254Z,23.68
2018-09-20T18:36:01.196Z,23.68
2018-09-20T18:37:02.069Z,23.60
2018-09-20T18:38:02.362Z,23.56
2018-09-20T18:39:02.904Z,23.52
2018-09-20T18:40:03.524Z,23.46
2018-09-20T18:41:03.835Z,23.41
2018-09-20T18:42:04.054Z,23.37
2018-09-20T18:43:04.376Z,23.33
2018-09-20T18:44:04.441Z,23.27
2018-09-20T18:45:04.789Z,23.24
2018-09-20T18:46:04.999Z,23.20
2018-09-20T18:47:05.023Z,23.14
2018-09-20T18:48:05.336Z,23.09
2018-09-20T18:49:05.444Z,23.07
2018-09-20T18:50:05.877Z,23.04
2018-09-20T18:51:06.052Z,22.99
2018-09-20T18:52:06.268Z,22.95
2018-09-20T18:53:06.898Z,22.91
2018-09-20T18:54:06.897Z,22.88
2018-09-20T18:55:06.387Z,22.83
2018-09-20T18:56:07.088Z,22.78
2018-09-20T18:57:06.440Z,22.73
2018-09-20T18:58:07.554Z,22.67
2018-09-20T18:59:07.504Z,22.62
2018-09-20T19:00:07.730Z,22.57
2018-09-20T19:01:07.891Z,22.53
2018-09-20T19:02:08.044Z,22.52
2018-09-20T19:03:08.422Z,22.42
2018-09-20T19:04:08.686Z,22.37
2018-09-20T19:05:09.626Z,22.33
2018-09-20T19:06:09.492Z,22.33
2018-09-20T19:07:10.181Z,22.29
2018-09-20T19:08:10.414Z,22.28
2018-09-20T19:09:10.301Z,22.26
2018-09-20T19:10:10.874Z,22.25
2018-09-20T19:11:11.154Z,22.26
2018-09-20T19:12:11.271Z,22.25
2018-09-20T19:13:11.427Z,22.22
2018-09-20T19:14:11.542Z,22.20
2018-09-20T19:15:11.523Z,22.16
2018-09-20T19:16:11.878Z,22.14
2018-09-20T19:17:12.470Z,22.14
2018-09-20T19:18:12.494Z,22.11
2018-09-20T19:19:12.296Z,22.08
2018-09-20T19:20:12.721Z,22.06
2018-09-20T19:21:13.152Z,22.03
2018-09-20T19:22:13.645Z,22.00
2018-09-20T19:23:13.670Z,21.98
2018-09-20T19:24:13.750Z,21.96
2018-09-20T19:26:13.797Z,21.93
2018-09-20T19:27:13.726Z,21.87
2018-09-20T19:28:14.348Z,21.83
2018-09-20T19:29:14.424Z,21.79
2018-09-20T19:30:14.912Z,21.76
2018-09-20T19:31:14.741Z,21.73
2018-09-20T19:32:14.723Z,21.72
2018-09-20T19:33:15.154Z,21.72
2018-09-20T19:34:15.771Z,21.72
2018-09-20T19:35:16.134Z,21.72
2018-09-20T19:36:16.284Z,21.71
2018-09-20T19:37:16.287Z,21.71
2018-09-20T19:38:16.238Z,21.68
2018-09-20T19:39:16.475Z,21.67
2018-09-20T19:40:17.224Z,21.66
2018-09-20T19:41:17.255Z,21.64
2018-09-20T19:42:17.867Z,21.62
2018-09-20T19:43:17.749Z,21.62
2018-09-20T19:44:18.849Z,21.62
2018-09-20T19:45:18.821Z,21.61
2018-09-20T19:46:19.655Z,21.60
2018-09-20T19:47:20.067Z,21.58
2018-09-20T19:48:22.903Z,21.57
2018-09-20T19:49:20.402Z,21.58
2018-09-20T19:50:21.313Z,21.57
2018-09-20T19:51:21.629Z,21.55
2018-09-20T19:52:21.673Z,21.55
2018-09-20T19:53:21.939Z,21.55
2018-09-20T19:54:21.953Z,21.50
2018-09-20T19:55:22.041Z,21.48
2018-09-20T19:56:22.015Z,21.47
2018-09-20T19:57:22.381Z,21.43
2018-09-20T19:58:22.703Z,21.42